sensor_id;sensor_type;location;lat;lon;timestamp;pressure;altitude;pressure_sealevel;temperature;humidity
9261;BME280;4667;42.726;23.252;2023-02-28T00:00:37;95702.97;;;7.56;nan
9261;BME280;4667;42.726;23.252;2023-02-28T00:03:04;95697.63;;;7.59;nan
9261;BME280;4667;42.726;23.252;2023-02-28T00:05:33;95704.59;;;7.60;nan
9261;BME280;4667;42.726;23.252;2023-02-28T00:08:00;95705.09;;;7.47;nan
9261;BME280;4667;42.726;23.252;2023-02-28T00:10:29;95694.16;;;7.39;nan
9261;BME280;4667;42.726;23.252;2023-02-28T00:12:59;95714.25;;;7.42;nan
9261;BME280;4667;42.726;23.252;2023-02-28T00:15:26;95721.88;;;7.40;nan
9261;BME280;4667;42.726;23.252;2023-02-28T00:17:54;95713.31;;;7.34;nan
9261;BME280;4667;42.726;23.252;2023-02-28T00:28:48;95733.97;;;7.11;nan
9261;BME280;4667;42.726;23.252;2023-02-28T00:33:44;95739.69;;;7.25;nan
9261;BME280;4667;42.726;23.252;2023-02-28T00:38:38;95740.50;;;7.10;nan
9261;BME280;4667;42.726;23.252;2023-02-28T00:41:06;95736.22;;;7.09;nan
9261;BME280;4667;42.726;23.252;2023-02-28T00:50:54;95724.31;;;6.91;nan
9261;BME280;4667;42.726;23.252;2023-02-28T00:53:20;95720.47;;;6.92;nan
9261;BME280;4667;42.726;23.252;2023-02-28T00:55:48;95719.28;;;6.89;nan
9261;BME280;4667;42.726;23.252;2023-02-28T00:58:15;95717.97;;;6.68;nan
9261;BME280;4667;42.726;23.252;2023-02-28T01:00:42;95724.75;;;6.77;nan
9261;BME280;4667;42.726;23.252;2023-02-28T01:03:10;95722.41;;;6.76;nan
9261;BME280;4667;42.726;23.252;2023-02-28T01:05:37;95711.97;;;6.74;nan
9261;BME280;4667;42.726;23.252;2023-02-28T01:08:04;95717.13;;;6.64;nan
9261;BME280;4667;42.726;23.252;2023-02-28T01:10:31;95712.47;;;6.61;nan
9261;BME280;4667;42.726;23.252;2023-02-28T01:12:58;95708.28;;;6.47;nan
9261;BME280;4667;42.726;23.252;2023-02-28T01:15:25;95713.06;;;6.23;nan
9261;BME280;4667;42.726;23.252;2023-02-28T01:17:51;95714.44;;;6.17;nan
9261;BME280;4667;42.726;23.252;2023-02-28T01:20:20;95719.91;;;6.20;nan
9261;BME280;4667;42.726;23.252;2023-02-28T01:22:46;95724.19;;;6.37;nan
9261;BME280;4667;42.726;23.252;2023-02-28T01:25:13;95724.88;;;6.34;nan
9261;BME280;4667;42.726;23.252;2023-02-28T01:27:40;95714.97;;;6.06;nan
9261;BME280;4667;42.726;23.252;2023-02-28T01:30:08;95729.19;;;6.38;nan
9261;BME280;4667;42.726;23.252;2023-02-28T01:32:36;95721.75;;;6.47;nan
9261;BME280;4667;42.726;23.252;2023-02-28T01:35:03;95716.19;;;6.40;nan
9261;BME280;4667;42.726;23.252;2023-02-28T01:37:31;95720.44;;;6.41;nan
9261;BME280;4667;42.726;23.252;2023-02-28T01:39:59;95714.63;;;6.39;nan
9261;BME280;4667;42.726;23.252;2023-02-28T01:42:26;95717.25;;;6.36;nan
9261;BME280;4667;42.726;23.252;2023-02-28T01:45:03;95716.34;;;6.32;nan
9261;BME280;4667;42.726;23.252;2023-02-28T01:47:34;95725.72;;;6.38;nan
9261;BME280;4667;42.726;23.252;2023-02-28T01:50:06;95712.63;;;6.36;nan
9261;BME280;4667;42.726;23.252;2023-02-28T01:52:36;95714.00;;;6.46;nan
9261;BME280;4667;42.726;23.252;2023-02-28T01:55:05;95720.19;;;6.46;nan
9261;BME280;4667;42.726;23.252;2023-02-28T01:57:35;95709.41;;;6.46;nan
9261;BME280;4667;42.726;23.252;2023-02-28T02:00:06;95708.19;;;6.44;nan
9261;BME280;4667;42.726;23.252;2023-02-28T02:02:36;95711.16;;;6.39;nan
9261;BME280;4667;42.726;23.252;2023-02-28T02:05:06;95722.00;;;6.11;nan
9261;BME280;4667;42.726;23.252;2023-02-28T02:07:37;95722.09;;;6.30;nan
9261;BME280;4667;42.726;23.252;2023-02-28T02:10:10;95725.47;;;6.43;nan
9261;BME280;4667;42.726;23.252;2023-02-28T02:13:00;95721.72;;;6.32;nan
9261;BME280;4667;42.726;23.252;2023-02-28T02:15:33;95712.38;;;6.41;nan
9261;BME280;4667;42.726;23.252;2023-02-28T02:18:04;95708.81;;;6.53;nan
9261;BME280;4667;42.726;23.252;2023-02-28T02:24:21;95716.72;;;6.30;nan
9261;BME280;4667;42.726;23.252;2023-02-28T02:27:04;95715.81;;;6.26;nan
9261;BME280;4667;42.726;23.252;2023-02-28T02:30:02;95714.03;;;6.30;nan
9261;BME280;4667;42.726;23.252;2023-02-28T02:33:00;95715.56;;;6.47;nan
9261;BME280;4667;42.726;23.252;2023-02-28T02:35:34;95714.03;;;6.30;nan
9261;BME280;4667;42.726;23.252;2023-02-28T02:38:09;95713.94;;;6.42;nan
9261;BME280;4667;42.726;23.252;2023-02-28T02:40:42;95713.66;;;6.47;nan
9261;BME280;4667;42.726;23.252;2023-02-28T02:43:13;95721.13;;;6.23;nan
9261;BME280;4667;42.726;23.252;2023-02-28T02:45:47;95727.44;;;6.14;nan
9261;BME280;4667;42.726;23.252;2023-02-28T02:48:18;95732.94;;;6.18;nan
9261;BME280;4667;42.726;23.252;2023-02-28T02:50:50;95728.31;;;6.50;nan
9261;BME280;4667;42.726;23.252;2023-02-28T02:53:21;95726.34;;;6.47;nan
9261;BME280;4667;42.726;23.252;2023-02-28T02:55:51;95729.22;;;6.54;nan
9261;BME280;4667;42.726;23.252;2023-02-28T02:58:23;95726.84;;;6.68;nan
9261;BME280;4667;42.726;23.252;2023-02-28T03:00:53;95728.75;;;6.68;nan
9261;BME280;4667;42.726;23.252;2023-02-28T03:03:22;95724.41;;;6.79;nan
9261;BME280;4667;42.726;23.252;2023-02-28T03:05:56;95735.19;;;6.79;nan
9261;BME280;4667;42.726;23.252;2023-02-28T03:08:23;95732.59;;;6.67;nan
9261;BME280;4667;42.726;23.252;2023-02-28T03:10:51;95739.59;;;6.55;nan
9261;BME280;4667;42.726;23.252;2023-02-28T03:16:33;95745.25;;;6.50;nan
9261;BME280;4667;42.726;23.252;2023-02-28T03:22:14;95758.44;;;6.40;nan
9261;BME280;4667;42.726;23.252;2023-02-28T03:24:50;95764.78;;;6.32;nan
9261;BME280;4667;42.726;23.252;2023-02-28T03:27:23;95764.00;;;6.63;nan
9261;BME280;4667;42.726;23.252;2023-02-28T03:29:56;95759.75;;;6.62;nan
9261;BME280;4667;42.726;23.252;2023-02-28T03:32:28;95764.81;;;6.79;nan
9261;BME280;4667;42.726;23.252;2023-02-28T03:35:02;95767.72;;;6.74;nan
9261;BME280;4667;42.726;23.252;2023-02-28T03:37:34;95767.41;;;6.91;nan
9261;BME280;4667;42.726;23.252;2023-02-28T03:40:05;95784.91;;;7.01;nan
9261;BME280;4667;42.726;23.252;2023-02-28T03:42:36;95777.09;;;6.95;nan
9261;BME280;4667;42.726;23.252;2023-02-28T03:45:10;95776.50;;;7.02;nan
9261;BME280;4667;42.726;23.252;2023-02-28T03:47:41;95778.03;;;7.03;nan
9261;BME280;4667;42.726;23.252;2023-02-28T03:50:15;95774.22;;;7.04;nan
9261;BME280;4667;42.726;23.252;2023-02-28T03:52:48;95773.09;;;7.05;nan
9261;BME280;4667;42.726;23.252;2023-02-28T03:55:17;95776.78;;;6.97;nan
9261;BME280;4667;42.726;23.252;2023-02-28T03:57:53;95777.69;;;7.05;nan
9261;BME280;4667;42.726;23.252;2023-02-28T04:00:28;95787.06;;;7.11;nan
9261;BME280;4667;42.726;23.252;2023-02-28T04:02:55;95788.97;;;7.10;nan
9261;BME280;4667;42.726;23.252;2023-02-28T04:05:23;95790.09;;;7.09;nan
9261;BME280;4667;42.726;23.252;2023-02-28T04:07:51;95783.59;;;7.10;nan
9261;BME280;4667;42.726;23.252;2023-02-28T04:10:19;95785.25;;;7.15;nan
9261;BME280;4667;42.726;23.252;2023-02-28T04:12:46;95783.69;;;7.14;nan
9261;BME280;4667;42.726;23.252;2023-02-28T04:15:15;95777.06;;;7.11;nan
9261;BME280;4667;42.726;23.252;2023-02-28T04:17:42;95788.63;;;7.12;nan
9261;BME280;4667;42.726;23.252;2023-02-28T04:20:10;95776.72;;;7.13;nan
9261;BME280;4667;42.726;23.252;2023-02-28T04:22:37;95779.25;;;7.06;nan
9261;BME280;4667;42.726;23.252;2023-02-28T04:25:06;95779.31;;;7.09;nan
9261;BME280;4667;42.726;23.252;2023-02-28T04:27:33;95782.91;;;7.13;nan
9261;BME280;4667;42.726;23.252;2023-02-28T04:30:00;95783.41;;;7.03;nan
9261;BME280;4667;42.726;23.252;2023-02-28T04:32:27;95783.41;;;7.03;nan
9261;BME280;4667;42.726;23.252;2023-02-28T04:34:53;95775.88;;;7.09;nan
9261;BME280;4667;42.726;23.252;2023-02-28T04:37:20;95790.53;;;7.11;nan
9261;BME280;4667;42.726;23.252;2023-02-28T04:39:53;95785.16;;;7.11;nan
9261;BME280;4667;42.726;23.252;2023-02-28T04:42:21;95787.78;;;7.08;nan
9261;BME280;4667;42.726;23.252;2023-02-28T04:44:47;95793.25;;;7.11;nan
9261;BME280;4667;42.726;23.252;2023-02-28T04:47:14;95781.09;;;7.02;nan
9261;BME280;4667;42.726;23.252;2023-02-28T04:49:41;95793.34;;;6.99;nan
9261;BME280;4667;42.726;23.252;2023-02-28T04:52:08;95801.16;;;7.04;nan
9261;BME280;4667;42.726;23.252;2023-02-28T04:54:35;95800.22;;;6.96;nan
9261;BME280;4667;42.726;23.252;2023-02-28T04:57:04;95805.34;;;7.02;nan
9261;BME280;4667;42.726;23.252;2023-02-28T04:59:32;95804.56;;;7.01;nan
9261;BME280;4667;42.726;23.252;2023-02-28T05:01:59;95804.56;;;7.01;nan
9261;BME280;4667;42.726;23.252;2023-02-28T05:04:32;95810.00;;;7.05;nan
9261;BME280;4667;42.726;23.252;2023-02-28T05:06:59;95813.59;;;7.09;nan
9261;BME280;4667;42.726;23.252;2023-02-28T05:09:26;95809.66;;;7.06;nan
9261;BME280;4667;42.726;23.252;2023-02-28T05:11:53;95805.50;;;7.09;nan
9261;BME280;4667;42.726;23.252;2023-02-28T05:14:20;95811.25;;;7.07;nan
9261;BME280;4667;42.726;23.252;2023-02-28T05:16:49;95801.00;;;6.97;nan
9261;BME280;4667;42.726;23.252;2023-02-28T05:19:15;95816.63;;;6.91;nan
9261;BME280;4667;42.726;23.252;2023-02-28T05:21:49;95816.28;;;6.93;nan
9261;BME280;4667;42.726;23.252;2023-02-28T05:24:17;95817.16;;;6.97;nan
9261;BME280;4667;42.726;23.252;2023-02-28T05:26:49;95820.88;;;6.92;nan
9261;BME280;4667;42.726;23.252;2023-02-28T05:29:16;95829.06;;;6.96;nan
9261;BME280;4667;42.726;23.252;2023-02-28T05:31:43;95817.91;;;6.97;nan
9261;BME280;4667;42.726;23.252;2023-02-28T05:34:11;95831.38;;;6.97;nan
9261;BME280;4667;42.726;23.252;2023-02-28T05:36:40;95831.91;;;7.03;nan
9261;BME280;4667;42.726;23.252;2023-02-28T05:39:07;95838.97;;;7.08;nan
9261;BME280;4667;42.726;23.252;2023-02-28T05:41:39;95846.66;;;7.09;nan
9261;BME280;4667;42.726;23.252;2023-02-28T05:44:06;95845.13;;;7.08;nan
9261;BME280;4667;42.726;23.252;2023-02-28T05:46:33;95839.03;;;7.11;nan
9261;BME280;4667;42.726;23.252;2023-02-28T05:49:00;95831.81;;;7.15;nan
9261;BME280;4667;42.726;23.252;2023-02-28T05:51:28;95839.63;;;7.05;nan
9261;BME280;4667;42.726;23.252;2023-02-28T05:53:59;95833.81;;;7.18;nan
9261;BME280;4667;42.726;23.252;2023-02-28T05:56:26;95826.19;;;7.20;nan
9261;BME280;4667;42.726;23.252;2023-02-28T05:58:53;95831.38;;;7.13;nan
9261;BME280;4667;42.726;23.252;2023-02-28T06:01:31;95843.03;;;7.17;nan
9261;BME280;4667;42.726;23.252;2023-02-28T06:03:58;95847.72;;;7.20;nan
9261;BME280;4667;42.726;23.252;2023-02-28T06:06:29;95847.78;;;7.24;nan
9261;BME280;4667;42.726;23.252;2023-02-28T06:08:56;95842.66;;;7.34;nan
9261;BME280;4667;42.726;23.252;2023-02-28T06:11:26;95845.44;;;7.38;nan
9261;BME280;4667;42.726;23.252;2023-02-28T06:13:53;95843.66;;;7.46;nan
9261;BME280;4667;42.726;23.252;2023-02-28T06:16:21;95842.03;;;7.41;nan
9261;BME280;4667;42.726;23.252;2023-02-28T06:18:48;95844.81;;;7.45;nan
9261;BME280;4667;42.726;23.252;2023-02-28T06:21:15;95843.13;;;7.56;nan
9261;BME280;4667;42.726;23.252;2023-02-28T06:23:43;95856.34;;;7.61;nan
9261;BME280;4667;42.726;23.252;2023-02-28T06:26:10;95848.25;;;7.61;nan
9261;BME280;4667;42.726;23.252;2023-02-28T06:28:37;95848.41;;;7.68;nan
9261;BME280;4667;42.726;23.252;2023-02-28T06:31:07;95854.94;;;7.67;nan
9261;BME280;4667;42.726;23.252;2023-02-28T06:33:37;95850.50;;;7.59;nan
9261;BME280;4667;42.726;23.252;2023-02-28T06:36:05;95862.59;;;7.65;nan
9261;BME280;4667;42.726;23.252;2023-02-28T06:38:32;95864.84;;;7.63;nan
9261;BME280;4667;42.726;23.252;2023-02-28T06:41:01;95861.78;;;7.64;nan
9261;BME280;4667;42.726;23.252;2023-02-28T06:43:29;95863.19;;;7.74;nan
9261;BME280;4667;42.726;23.252;2023-02-28T06:45:57;95867.91;;;7.80;nan
9261;BME280;4667;42.726;23.252;2023-02-28T06:48:24;95868.28;;;7.79;nan
9261;BME280;4667;42.726;23.252;2023-02-28T06:50:52;95869.22;;;7.87;nan
9261;BME280;4667;42.726;23.252;2023-02-28T06:53:19;95871.72;;;7.95;nan
9261;BME280;4667;42.726;23.252;2023-02-28T06:55:45;95874.91;;;8.01;nan
9261;BME280;4667;42.726;23.252;2023-02-28T06:58:22;95876.91;;;8.04;nan
9261;BME280;4667;42.726;23.252;2023-02-28T07:00:51;95869.72;;;8.11;nan
9261;BME280;4667;42.726;23.252;2023-02-28T07:03:18;95871.94;;;8.06;nan
9261;BME280;4667;42.726;23.252;2023-02-28T07:05:45;95871.16;;;8.05;nan
9261;BME280;4667;42.726;23.252;2023-02-28T07:08:12;95868.44;;;8.05;nan
9261;BME280;4667;42.726;23.252;2023-02-28T07:10:39;95873.72;;;7.98;nan
9261;BME280;4667;42.726;23.252;2023-02-28T07:13:07;95873.41;;;7.84;nan
9261;BME280;4667;42.726;23.252;2023-02-28T07:15:36;95875.09;;;7.73;nan
9261;BME280;4667;42.726;23.252;2023-02-28T07:18:06;95875.88;;;7.73;nan
9261;BME280;4667;42.726;23.252;2023-02-28T07:20:33;95880.72;;;7.84;nan
9261;BME280;4667;42.726;23.252;2023-02-28T07:22:59;95876.88;;;7.85;nan
9261;BME280;4667;42.726;23.252;2023-02-28T07:25:28;95873.97;;;7.74;nan
9261;BME280;4667;42.726;23.252;2023-02-28T07:27:55;95878.06;;;7.68;nan
9261;BME280;4667;42.726;23.252;2023-02-28T07:30:24;95873.53;;;7.72;nan
9261;BME280;4667;42.726;23.252;2023-02-28T07:32:54;95869.00;;;7.76;nan
9261;BME280;4667;42.726;23.252;2023-02-28T07:35:22;95875.09;;;7.73;nan
9261;BME280;4667;42.726;23.252;2023-02-28T07:37:49;95875.28;;;7.64;nan
9261;BME280;4667;42.726;23.252;2023-02-28T07:40:16;95878.94;;;7.72;nan
9261;BME280;4667;42.726;23.252;2023-02-28T07:42:48;95875.09;;;7.73;nan
9261;BME280;4667;42.726;23.252;2023-02-28T07:45:30;95879.25;;;7.70;nan
9261;BME280;4667;42.726;23.252;2023-02-28T07:48:01;95876.56;;;7.70;nan
9261;BME280;4667;42.726;23.252;2023-02-28T07:50:28;95877.00;;;7.72;nan
9261;BME280;4667;42.726;23.252;2023-02-28T07:52:56;95872.59;;;7.64;nan
9261;BME280;4667;42.726;23.252;2023-02-28T07:55:23;95870.56;;;7.77;nan
9261;BME280;4667;42.726;23.252;2023-02-28T07:57:49;95876.59;;;7.90;nan
9261;BME280;4667;42.726;23.252;2023-02-28T08:00:17;95870.78;;;7.88;nan
9261;BME280;4667;42.726;23.252;2023-02-28T08:02:43;95869.38;;;7.94;nan
9261;BME280;4667;42.726;23.252;2023-02-28T08:05:11;95869.63;;;7.69;nan
9261;BME280;4667;42.726;23.252;2023-02-28T08:07:38;95855.84;;;7.55;nan
9261;BME280;4667;42.726;23.252;2023-02-28T08:10:06;95867.56;;;7.47;nan
9261;BME280;4667;42.726;23.252;2023-02-28T08:12:35;95867.22;;;7.84;nan
9261;BME280;4667;42.726;23.252;2023-02-28T08:15:02;95861.34;;;8.16;nan
9261;BME280;4667;42.726;23.252;2023-02-28T08:17:29;95872.78;;;8.29;nan
9261;BME280;4667;42.726;23.252;2023-02-28T08:19:56;95881.97;;;8.44;nan
9261;BME280;4667;42.726;23.252;2023-02-28T08:22:24;95884.03;;;8.50;nan
9261;BME280;4667;42.726;23.252;2023-02-28T08:24:51;95884.19;;;8.38;nan
9261;BME280;4667;42.726;23.252;2023-02-28T08:27:18;95891.50;;;8.38;nan
9261;BME280;4667;42.726;23.252;2023-02-28T08:29:45;95881.25;;;8.47;nan
9261;BME280;4667;42.726;23.252;2023-02-28T08:32:12;95886.25;;;8.45;nan
9261;BME280;4667;42.726;23.252;2023-02-28T08:37:13;95884.06;;;8.73;nan
9261;BME280;4667;42.726;23.252;2023-02-28T08:39:41;95874.34;;;8.69;nan
9261;BME280;4667;42.726;23.252;2023-02-28T08:42:08;95874.44;;;8.53;nan
9261;BME280;4667;42.726;23.252;2023-02-28T08:44:35;95879.53;;;8.58;nan
9261;BME280;4667;42.726;23.252;2023-02-28T08:47:03;95872.91;;;8.75;nan
9261;BME280;4667;42.726;23.252;2023-02-28T08:49:32;95876.09;;;8.80;nan
9261;BME280;4667;42.726;23.252;2023-02-28T08:52:00;95881.06;;;8.78;nan
9261;BME280;4667;42.726;23.252;2023-02-28T08:54:27;95878.50;;;8.85;nan
9261;BME280;4667;42.726;23.252;2023-02-28T08:56:59;95874.88;;;8.78;nan
9261;BME280;4667;42.726;23.252;2023-02-28T08:59:26;95876.09;;;8.80;nan
9261;BME280;4667;42.726;23.252;2023-02-28T09:01:54;95885.03;;;8.84;nan
9261;BME280;4667;42.726;23.252;2023-02-28T09:04:22;95874.19;;;9.04;nan
9261;BME280;4667;42.726;23.252;2023-02-28T09:06:51;95873.84;;;9.05;nan
9261;BME280;4667;42.726;23.252;2023-02-28T09:09:18;95872.25;;;9.04;nan
9261;BME280;4667;42.726;23.252;2023-02-28T09:11:45;95865.53;;;9.17;nan
9261;BME280;4667;42.726;23.252;2023-02-28T09:14:13;95863.59;;;9.40;nan
9261;BME280;4667;42.726;23.252;2023-02-28T09:16:42;95868.06;;;9.56;nan
9261;BME280;4667;42.726;23.252;2023-02-28T09:19:10;95875.47;;;9.36;nan
9261;BME280;4667;42.726;23.252;2023-02-28T09:21:38;95867.63;;;9.54;nan
9261;BME280;4667;42.726;23.252;2023-02-28T09:24:07;95864.38;;;9.41;nan
9261;BME280;4667;42.726;23.252;2023-02-28T09:26:34;95876.69;;;9.38;nan
9261;BME280;4667;42.726;23.252;2023-02-28T09:29:02;95867.63;;;9.27;nan
9261;BME280;4667;42.726;23.252;2023-02-28T09:31:36;95864.22;;;9.57;nan
9261;BME280;4667;42.726;23.252;2023-02-28T09:34:04;95869.66;;;9.60;nan
9261;BME280;4667;42.726;23.252;2023-02-28T09:36:32;95859.31;;;9.66;nan
9261;BME280;4667;42.726;23.252;2023-02-28T09:39:00;95856.84;;;9.83;nan
9261;BME280;4667;42.726;23.252;2023-02-28T09:41:27;95858.94;;;9.94;nan
9261;BME280;4667;42.726;23.252;2023-02-28T09:44:02;95855.81;;;9.92;nan
9261;BME280;4667;42.726;23.252;2023-02-28T09:46:37;95854.78;;;10.03;nan
9261;BME280;4667;42.726;23.252;2023-02-28T09:49:10;95849.59;;;10.17;nan
9261;BME280;4667;42.726;23.252;2023-02-28T09:51:45;95853.56;;;10.27;nan
9261;BME280;4667;42.726;23.252;2023-02-28T09:54:16;95849.84;;;10.39;nan
9261;BME280;4667;42.726;23.252;2023-02-28T09:56:47;95846.44;;;10.45;nan
9261;BME280;4667;42.726;23.252;2023-02-28T09:59:29;95847.31;;;10.56;nan
9261;BME280;4667;42.726;23.252;2023-02-28T10:02:04;95842.66;;;10.53;nan
9261;BME280;4667;42.726;23.252;2023-02-28T10:04:42;95842.00;;;10.67;nan
9261;BME280;4667;42.726;23.252;2023-02-28T10:07:25;95835.00;;;10.62;nan
9261;BME280;4667;42.726;23.252;2023-02-28T10:09:58;95825.97;;;10.92;nan
9261;BME280;4667;42.726;23.252;2023-02-28T10:12:29;95822.41;;;11.25;nan
9261;BME280;4667;42.726;23.252;2023-02-28T10:47:33;95772.25;;;12.99;nan
9261;BME280;4667;42.726;23.252;2023-02-28T11:25:21;95720.13;;;13.57;nan
9261;BME280;4667;42.726;23.252;2023-02-28T11:48:04;95706.88;;;14.46;nan
9261;BME280;4667;42.726;23.252;2023-02-28T12:11:12;95701.09;;;14.89;nan
9261;BME280;4667;42.726;23.252;2023-02-28T14:40:52;95665.84;;;12.26;nan
9261;BME280;4667;42.726;23.252;2023-02-28T14:48:28;95670.06;;;12.16;nan
9261;BME280;4667;42.726;23.252;2023-02-28T14:51:01;95665.06;;;12.18;nan
9261;BME280;4667;42.726;23.252;2023-02-28T14:53:43;95667.00;;;12.36;nan
9261;BME280;4667;42.726;23.252;2023-02-28T15:02:18;95670.47;;;12.11;nan
9261;BME280;4667;42.726;23.252;2023-02-28T16:15:58;95720.16;;;9.97;nan
9261;BME280;4667;42.726;23.252;2023-02-28T17:46:28;95770.03;;;8.83;nan
9261;BME280;4667;42.726;23.252;2023-02-28T17:54:02;95778.69;;;8.70;nan
9261;BME280;4667;42.726;23.252;2023-02-28T17:56:32;95786.88;;;8.54;nan
9261;BME280;4667;42.726;23.252;2023-02-28T18:23:13;95774.66;;;8.60;nan
9261;BME280;4667;42.726;23.252;2023-02-28T18:38:28;95773.66;;;8.45;nan
9261;BME280;4667;42.726;23.252;2023-02-28T18:54:19;95795.75;;;8.32;nan
9261;BME280;4667;42.726;23.252;2023-02-28T20:43:19;95805.25;;;7.87;nan
9261;BME280;4667;42.726;23.252;2023-02-28T20:53:14;95807.19;;;7.87;nan
9261;BME280;4667;42.726;23.252;2023-02-28T21:05:39;95806.81;;;7.88;nan
9261;BME280;4667;42.726;23.252;2023-02-28T21:08:06;95811.25;;;7.96;nan
9261;BME280;4667;42.726;23.252;2023-02-28T21:35:03;95799.44;;;8.04;nan
9261;BME280;4667;42.726;23.252;2023-02-28T21:47:19;95790.50;;;8.00;nan
9261;BME280;4667;42.726;23.252;2023-02-28T21:49:45;95793.84;;;7.94;nan
9261;BME280;4667;42.726;23.252;2023-02-28T21:52:12;95791.00;;;7.87;nan
9261;BME280;4667;42.726;23.252;2023-02-28T21:54:39;95789.88;;;7.68;nan
9261;BME280;4667;42.726;23.252;2023-02-28T22:09:21;95812.88;;;8.01;nan
9261;BME280;4667;42.726;23.252;2023-02-28T22:11:48;95805.06;;;7.96;nan
9261;BME280;4667;42.726;23.252;2023-02-28T22:14:15;95804.06;;;7.85;nan
9261;BME280;4667;42.726;23.252;2023-02-28T22:16:42;95808.88;;;7.95;nan
9261;BME280;4667;42.726;23.252;2023-02-28T22:19:09;95806.69;;;7.81;nan
9261;BME280;4667;42.726;23.252;2023-02-28T22:21:38;95806.47;;;7.90;nan
9261;BME280;4667;42.726;23.252;2023-02-28T22:24:07;95811.38;;;7.84;nan
9261;BME280;4667;42.726;23.252;2023-02-28T22:26:35;95805.50;;;7.78;nan
9261;BME280;4667;42.726;23.252;2023-02-28T22:29:02;95802.16;;;7.85;nan
9261;BME280;4667;42.726;23.252;2023-02-28T22:31:31;95805.19;;;7.84;nan
9261;BME280;4667;42.726;23.252;2023-02-28T22:33:59;95810.22;;;7.66;nan
9261;BME280;4667;42.726;23.252;2023-02-28T22:36:27;95805.34;;;7.71;nan
9261;BME280;4667;42.726;23.252;2023-02-28T22:46:16;95805.47;;;7.59;nan
9261;BME280;4667;42.726;23.252;2023-02-28T22:48:43;95801.91;;;7.55;nan
9261;BME280;4667;42.726;23.252;2023-02-28T22:51:14;95808.09;;;7.56;nan
9261;BME280;4667;42.726;23.252;2023-02-28T22:53:43;95808.72;;;7.49;nan
9261;BME280;4667;42.726;23.252;2023-02-28T23:01:06;95804.19;;;7.53;nan
9261;BME280;4667;42.726;23.252;2023-02-28T23:03:33;95796.31;;;7.45;nan
9261;BME280;4667;42.726;23.252;2023-02-28T23:06:03;95799.06;;;7.48;nan
9261;BME280;4667;42.726;23.252;2023-02-28T23:11:03;95787.50;;;7.48;nan
9261;BME280;4667;42.726;23.252;2023-02-28T23:20:50;95782.91;;;7.67;nan
9261;BME280;4667;42.726;23.252;2023-02-28T23:57:33;95731.09;;;7.39;nan
